createdAt,value
2018-08-07T00:00:08.391Z,62.66
2018-08-07T00:01:08.390Z,63.24
2018-08-07T00:02:08.380Z,63.18
2018-08-07T00:03:08.355Z,63.08
2018-08-07T00:04:08.350Z,63.15
2018-08-07T00:05:08.336Z,63.73
2018-08-07T00:06:08.326Z,63.43
2018-08-07T00:07:08.395Z,63.92
2018-08-07T00:08:08.309Z,63.28
2018-08-07T00:09:08.292Z,63.95
2018-08-07T00:10:08.276Z,64.14
2018-08-07T00:11:08.264Z,64.11
2018-08-07T00:12:08.269Z,63.56
2018-08-07T00:13:08.243Z,63.85
2018-08-07T00:14:08.232Z,63.05
2018-08-07T00:15:08.226Z,63.34
2018-08-07T00:16:08.216Z,63.63
2018-08-07T00:17:08.198Z,63.85
2018-08-07T00:18:08.186Z,63.92
2018-08-07T00:19:08.179Z,63.56
2018-08-07T00:20:08.164Z,63.73
2018-08-07T00:21:08.154Z,63.24
2018-08-07T00:22:08.143Z,63.15
2018-08-07T00:23:08.131Z,62.76
2018-08-07T00:24:08.120Z,63.63
2018-08-07T00:25:08.108Z,63.92
2018-08-07T00:26:08.095Z,63.63
2018-08-07T00:27:08.088Z,63.05
2018-08-07T00:28:08.082Z,63.53
2018-08-07T00:29:08.061Z,63.53
2018-08-07T00:30:08.062Z,63.92
2018-08-07T00:31:08.043Z,64.50
2018-08-07T00:32:08.029Z,64.31
2018-08-07T00:33:08.024Z,64.69
2018-08-07T00:34:08.007Z,64.89
2018-08-07T00:35:07.994Z,64.79
2018-08-07T00:36:07.983Z,64.98
2018-08-07T00:37:07.972Z,64.98
2018-08-07T00:38:07.957Z,65.17
2018-08-07T00:39:07.947Z,65.95
2018-08-07T00:40:07.942Z,66.33
2018-08-07T00:41:07.939Z,66.14
2018-08-07T00:42:07.918Z,66.33
2018-08-07T00:43:07.906Z,66.33
2018-08-07T00:44:07.889Z,66.24
2018-08-07T00:45:07.878Z,66.43
2018-08-07T00:46:07.867Z,66.14
2018-08-07T00:47:07.857Z,66.33
2018-08-07T00:48:07.844Z,66.14
2018-08-07T00:49:07.836Z,65.91
2018-08-07T00:50:07.873Z,66.49
2018-08-07T00:51:07.810Z,66.40
2018-08-07T00:52:07.955Z,66.69
2018-08-07T00:53:07.785Z,66.78
2018-08-07T00:54:07.775Z,66.11
2018-08-07T00:55:07.762Z,66.30
2018-08-07T00:56:07.749Z,66.49
2018-08-07T00:57:07.739Z,66.59
2018-08-07T00:58:07.729Z,65.91
2018-08-07T00:59:07.718Z,66.40
2018-08-07T01:00:07.714Z,67.27
2018-08-07T01:01:07.693Z,67.46
2018-08-07T01:02:07.683Z,66.59
2018-08-07T01:03:07.671Z,66.78
2018-08-07T01:04:07.658Z,66.59
2018-08-07T01:05:07.649Z,66.78
2018-08-07T01:06:07.636Z,66.30
2018-08-07T01:07:07.623Z,65.82
2018-08-07T01:08:07.611Z,66.20
2018-08-07T01:09:07.603Z,67.36
2018-08-07T01:10:07.596Z,67.27
2018-08-07T01:11:07.578Z,67.27
2018-08-07T01:12:07.565Z,67.46
2018-08-07T01:13:07.556Z,67.36
2018-08-07T01:14:07.546Z,67.27
2018-08-07T01:15:07.529Z,67.36
2018-08-07T01:16:07.522Z,67.27
2018-08-07T01:17:07.509Z,67.55
2018-08-07T01:18:07.496Z,67.27
2018-08-07T01:19:07.495Z,67.27
2018-08-07T01:20:07.474Z,67.55
2018-08-07T01:21:07.458Z,67.94
2018-08-07T01:22:07.454Z,68.23
2018-08-07T01:23:07.443Z,68.33
2018-08-07T01:24:07.499Z,68.23
2018-08-07T01:25:07.414Z,68.71
2018-08-07T01:26:07.401Z,68.04
2018-08-07T01:27:07.474Z,69.10
2018-08-07T01:28:07.380Z,69.00
2018-08-07T01:29:07.366Z,69.49
2018-08-07T01:30:07.354Z,69.55
2018-08-07T01:31:07.343Z,69.64
2018-08-07T01:32:07.334Z,69.93
2018-08-07T01:33:07.326Z,70.32
2018-08-07T01:34:07.312Z,70.42
2018-08-07T01:35:07.296Z,70.61
2018-08-07T01:36:07.286Z,70.13
2018-08-07T01:37:07.270Z,70.51
2018-08-07T01:38:07.264Z,70.90
2018-08-07T01:39:07.248Z,71.09
2018-08-07T01:40:07.237Z,71.09
2018-08-07T01:41:07.229Z,71.00
2018-08-07T01:42:07.221Z,71.38
2018-08-07T01:43:07.205Z,70.51
2018-08-07T01:44:07.193Z,70.61
2018-08-07T01:45:07.177Z,71.19
2018-08-07T01:46:07.173Z,71.58
2018-08-07T01:47:07.151Z,71.48
2018-08-07T01:48:07.142Z,71.48
2018-08-07T01:49:07.132Z,71.48
2018-08-07T01:50:07.117Z,70.90
2018-08-07T01:51:07.206Z,71.58
2018-08-07T01:52:07.106Z,71.58
2018-08-07T01:53:07.081Z,71.38
2018-08-07T01:54:07.069Z,71.28
2018-08-07T01:55:07.058Z,71.28
2018-08-07T01:56:07.050Z,71.54
2018-08-07T01:57:07.034Z,72.15
2018-08-07T01:58:07.023Z,71.92
2018-08-07T01:59:07.010Z,72.21
2018-08-07T02:00:06.999Z,72.02
2018-08-07T02:01:06.985Z,72.12
2018-08-07T02:02:06.975Z,72.12
2018-08-07T02:03:06.962Z,72.79
2018-08-07T02:04:06.949Z,72.99
2018-08-07T02:05:06.939Z,73.18
2018-08-07T02:06:06.931Z,72.75
2018-08-07T02:07:06.912Z,72.60
2018-08-07T02:08:06.900Z,73.18
2018-08-07T02:09:06.890Z,72.50
2018-08-07T02:10:06.880Z,72.69
2018-08-07T02:11:06.864Z,72.99
2018-08-07T02:12:06.854Z,72.47
2018-08-07T02:13:06.839Z,72.56
2018-08-07T02:14:06.830Z,72.37
2018-08-07T02:15:06.824Z,71.22
2018-08-07T02:16:06.807Z,71.60
2018-08-07T02:17:06.798Z,71.98
2018-08-07T02:18:06.785Z,72.37
2018-08-07T02:19:06.769Z,72.47
2018-08-07T02:20:06.757Z,72.27
2018-08-07T02:21:06.743Z,72.37
2018-08-07T02:22:06.730Z,72.18
2018-08-07T02:23:06.725Z,71.79
2018-08-07T02:24:06.715Z,70.83
2018-08-07T02:25:06.697Z,70.92
2018-08-07T02:26:06.681Z,70.44
2018-08-07T02:27:06.670Z,70.64
2018-08-07T02:28:06.657Z,71.31
2018-08-07T02:29:06.648Z,71.79
2018-08-07T02:30:06.635Z,71.98
2018-08-07T02:31:06.673Z,71.98
2018-08-07T02:32:06.610Z,71.50
2018-08-07T02:33:06.604Z,70.73
2018-08-07T02:34:06.584Z,71.02
2018-08-07T02:35:06.576Z,70.44
2018-08-07T02:36:06.562Z,70.25
2018-08-07T02:37:06.548Z,71.02
2018-08-07T02:38:06.535Z,71.02
2018-08-07T02:39:06.521Z,71.41
2018-08-07T02:40:06.513Z,71.31
2018-08-07T02:41:06.500Z,71.70
2018-08-07T02:42:06.487Z,70.92
2018-08-07T02:43:06.472Z,71.22
2018-08-07T02:44:06.472Z,71.22
2018-08-07T02:45:06.450Z,71.41
2018-08-07T02:46:06.441Z,71.22
2018-08-07T02:47:06.525Z,70.92
2018-08-07T02:48:06.430Z,70.35
2018-08-07T02:49:06.401Z,70.44
2018-08-07T02:50:06.391Z,70.44
2018-08-07T02:51:06.376Z,70.64
2018-08-07T02:52:06.362Z,70.73
2018-08-07T02:53:06.354Z,69.96
2018-08-07T02:54:06.337Z,70.64
2018-08-07T02:55:06.326Z,70.83
2018-08-07T02:56:06.313Z,70.73
2018-08-07T02:57:06.301Z,71.02
2018-08-07T02:58:06.290Z,71.02
2018-08-07T02:59:06.277Z,70.92
2018-08-07T03:00:06.268Z,70.92
2018-08-07T03:01:06.261Z,70.64
2018-08-07T03:02:06.241Z,69.38
2018-08-07T03:03:06.229Z,69.29
2018-08-07T03:04:06.217Z,69.77
2018-08-07T03:05:06.203Z,69.87
2018-08-07T03:06:06.274Z,69.87
2018-08-07T03:07:06.181Z,70.35
2018-08-07T03:08:06.168Z,70.73
2018-08-07T03:09:06.156Z,70.64
2018-08-07T03:10:06.143Z,70.64
2018-08-07T03:11:06.141Z,70.92
2018-08-07T03:12:06.117Z,71.02
2018-08-07T03:13:06.108Z,71.12
2018-08-07T03:14:06.100Z,71.41
2018-08-07T03:15:06.081Z,70.83
2018-08-07T03:16:06.069Z,71.02
2018-08-07T03:17:06.058Z,71.31
2018-08-07T03:18:06.044Z,71.70
2018-08-07T03:19:06.041Z,71.98
2018-08-07T03:20:06.022Z,72.27
2018-08-07T03:21:06.009Z,72.24
2018-08-07T03:22:06.003Z,72.37
2018-08-07T03:23:05.980Z,71.89
2018-08-07T03:24:05.970Z,71.50
2018-08-07T03:25:05.960Z,71.31
2018-08-07T03:26:05.944Z,71.37
2018-08-07T03:27:05.932Z,71.02
2018-08-07T03:28:05.919Z,71.02
2018-08-07T03:29:05.909Z,71.22
2018-08-07T03:30:05.894Z,71.50
2018-08-07T03:31:05.880Z,71.12
2018-08-07T03:32:05.868Z,71.12
2018-08-07T03:33:05.857Z,71.28
2018-08-07T03:34:05.847Z,71.02
2018-08-07T03:35:05.834Z,70.41
2018-08-07T03:36:05.828Z,70.60
2018-08-07T03:37:05.807Z,70.89
2018-08-07T03:38:05.795Z,71.91
2018-08-07T03:39:05.781Z,71.18
2018-08-07T03:40:05.769Z,70.70
2018-08-07T03:41:05.758Z,71.08
2018-08-07T03:42:05.747Z,69.73
2018-08-07T03:43:05.733Z,69.64
2018-08-07T03:44:05.732Z,70.37
2018-08-07T03:45:05.707Z,70.37
2018-08-07T03:46:05.696Z,70.21
2018-08-07T03:47:05.682Z,70.89
2018-08-07T03:48:05.672Z,69.73
2018-08-07T03:49:05.658Z,69.54
2018-08-07T03:50:05.645Z,70.31
2018-08-07T03:51:05.634Z,70.89
2018-08-07T03:52:05.618Z,70.89
2018-08-07T03:53:05.613Z,70.89
2018-08-07T03:54:05.598Z,70.98
2018-08-07T03:55:05.581Z,70.98
2018-08-07T03:56:05.572Z,70.79
2018-08-07T03:57:05.567Z,70.98
2018-08-07T03:58:05.543Z,70.41
2018-08-07T03:59:05.554Z,70.21
2018-08-07T04:00:05.523Z,70.41
2018-08-07T04:01:05.511Z,70.60
2018-08-07T04:02:05.493Z,70.60
2018-08-07T04:03:05.481Z,70.89
2018-08-07T04:04:05.471Z,70.60
2018-08-07T04:05:05.455Z,70.41
2018-08-07T04:06:05.441Z,70.21
2018-08-07T04:07:05.431Z,70.41
2018-08-07T04:08:05.424Z,70.60
2018-08-07T04:09:05.407Z,70.76
2018-08-07T04:10:05.496Z,70.70
2018-08-07T04:11:05.380Z,70.31
2018-08-07T04:12:05.365Z,69.83
2018-08-07T04:13:05.352Z,69.93
2018-08-07T04:14:05.341Z,69.06
2018-08-07T04:15:05.328Z,69.15
2018-08-07T04:16:05.317Z,69.25
2018-08-07T04:17:05.304Z,69.15
2018-08-07T04:18:05.290Z,69.35
2018-08-07T04:19:05.277Z,68.96
2018-08-07T04:20:05.264Z,68.68
2018-08-07T04:21:05.259Z,68.77
2018-08-07T04:22:05.238Z,68.58
2018-08-07T04:23:05.240Z,67.81
2018-08-07T04:24:05.214Z,67.81
2018-08-07T04:25:05.205Z,67.33
2018-08-07T04:26:05.312Z,68.00
2018-08-07T04:27:05.176Z,67.61
2018-08-07T04:28:05.163Z,67.23
2018-08-07T04:29:05.150Z,67.13
2018-08-07T04:30:05.138Z,67.03
2018-08-07T04:31:05.126Z,67.81
2018-08-07T04:32:05.112Z,67.90
2018-08-07T04:33:05.100Z,67.90
2018-08-07T04:34:05.096Z,68.58
2018-08-07T04:35:05.096Z,68.58
2018-08-07T04:36:05.070Z,68.74
2018-08-07T04:37:05.066Z,68.58
2018-08-07T04:38:05.037Z,68.77
2018-08-07T04:39:05.025Z,68.64
2018-08-07T04:40:05.012Z,68.10
2018-08-07T04:41:04.999Z,67.81
2018-08-07T04:42:05.134Z,68.10
2018-08-07T04:43:04.974Z,67.71
2018-08-07T04:44:04.961Z,67.61
2018-08-07T04:45:04.999Z,67.23
2018-08-07T04:46:04.935Z,66.94
2018-08-07T04:47:04.922Z,66.27
2018-08-07T04:48:04.919Z,66.36
2018-08-07T04:49:04.901Z,66.27
2018-08-07T04:50:04.885Z,67.13
2018-08-07T04:51:04.872Z,66.78
2018-08-07T04:52:04.863Z,66.49
2018-08-07T04:53:04.850Z,66.30
2018-08-07T04:54:04.839Z,66.01
2018-08-07T04:55:04.832Z,65.53
2018-08-07T04:56:04.815Z,65.43
2018-08-07T04:57:04.807Z,65.91
2018-08-07T04:58:04.819Z,64.95
2018-08-07T04:59:04.784Z,64.95
2018-08-07T05:00:04.759Z,64.98
2018-08-07T05:01:04.750Z,64.98
2018-08-07T05:02:04.740Z,65.43
2018-08-07T05:03:04.720Z,64.89
2018-08-07T05:04:04.709Z,65.14
2018-08-07T05:05:04.698Z,64.98
2018-08-07T05:06:04.752Z,65.37
2018-08-07T05:07:04.674Z,65.27
2018-08-07T05:08:04.659Z,65.08
2018-08-07T05:09:04.648Z,65.27
2018-08-07T05:10:04.633Z,65.66
2018-08-07T05:11:04.645Z,64.40
2018-08-07T05:12:04.613Z,63.63
2018-08-07T05:13:04.598Z,64.02
2018-08-07T05:14:04.585Z,64.21
2018-08-07T05:15:04.572Z,63.73
2018-08-07T05:16:04.561Z,63.67
2018-08-07T05:17:04.553Z,63.09
2018-08-07T05:18:04.534Z,63.18
2018-08-07T05:19:04.522Z,63.95
2018-08-07T05:20:04.520Z,63.95
2018-08-07T05:21:04.541Z,64.31
2018-08-07T05:22:04.484Z,64.05
2018-08-07T05:23:04.472Z,63.57
2018-08-07T05:24:04.460Z,62.60
2018-08-07T05:25:04.501Z,62.79
2018-08-07T05:26:04.436Z,62.02
2018-08-07T05:27:04.422Z,62.22
2018-08-07T05:28:04.411Z,62.89
2018-08-07T05:29:04.400Z,62.31
2018-08-07T05:30:04.386Z,62.22
2018-08-07T05:31:04.380Z,62.12
2018-08-07T05:32:04.362Z,61.93
2018-08-07T05:33:04.349Z,61.93
2018-08-07T05:34:04.338Z,61.83
2018-08-07T05:35:04.325Z,60.71
2018-08-07T05:36:04.314Z,59.96
2018-08-07T05:37:04.302Z,56.86
2018-08-07T05:38:04.300Z,55.46
2018-08-07T05:39:04.279Z,54.16
2018-08-07T05:40:04.273Z,51.76
2018-08-07T05:41:04.403Z,50.36
2018-08-07T05:42:04.239Z,49.61
2018-08-07T05:43:04.228Z,48.18
2018-08-07T05:44:04.316Z,47.61
2018-08-07T05:45:04.205Z,46.37
2018-08-07T05:46:04.206Z,46.11
2018-08-07T05:47:04.184Z,44.74
2018-08-07T05:48:04.174Z,45.21
2018-08-07T05:49:04.163Z,45.23
2018-08-07T05:50:04.234Z,44.30
2018-08-07T05:51:04.511Z,42.96
2018-08-07T05:52:04.152Z,41.81
2018-08-07T05:53:04.149Z,41.71
2018-08-07T05:54:04.115Z,41.15
2018-08-07T05:55:04.134Z,40.48
2018-08-07T05:56:04.098Z,40.01
2018-08-07T05:57:04.089Z,39.92
2018-08-07T05:58:04.235Z,38.79
2018-08-07T05:59:04.075Z,38.18
2018-08-07T06:00:04.069Z,37.62
2018-08-07T06:01:04.063Z,38.02
2018-08-07T06:02:04.050Z,37.32
2018-08-07T06:03:04.046Z,38.48
2018-08-07T06:04:04.039Z,38.89
2018-08-07T06:05:04.238Z,38.01
2018-08-07T06:06:48.006Z,37.91
2018-08-07T06:09:17.111Z,37.35
2018-08-07T06:10:17.108Z,36.57
2018-08-07T06:11:17.111Z,36.46
2018-08-07T06:12:17.099Z,36.55
2018-08-07T06:13:17.097Z,36.65
2018-08-07T06:14:17.088Z,36.85
2018-08-07T06:15:17.084Z,36.75
2018-08-07T06:16:17.077Z,36.94
2018-08-07T06:17:17.123Z,37.48
2018-08-07T06:18:17.069Z,38.73
2018-08-07T06:19:17.089Z,39.29
2018-08-07T06:20:17.060Z,39.69
2018-08-07T06:21:17.072Z,39.98
2018-08-07T06:22:20.686Z,40.13
2018-08-07T06:23:17.048Z,40.72
2018-08-07T06:24:17.044Z,41.48
2018-08-07T06:25:17.044Z,42.02
2018-08-07T06:26:17.043Z,42.80
2018-08-07T06:27:17.035Z,43.36
2018-08-07T06:28:17.040Z,44.12
2018-08-07T06:29:17.029Z,45.26
2018-08-07T06:30:17.036Z,45.84
2018-08-07T06:31:17.069Z,45.09
2018-08-07T06:32:17.031Z,43.67
2018-08-07T06:33:17.014Z,42.82
2018-08-07T06:34:17.019Z,42.33
2018-08-07T06:35:17.009Z,41.86
2018-08-07T06:36:17.006Z,41.40
2018-08-07T06:37:17.018Z,41.01
2018-08-07T06:38:17.006Z,41.30
2018-08-07T06:39:16.995Z,40.64
2018-08-07T06:40:16.992Z,41.11
2018-08-07T06:41:16.991Z,41.77
2018-08-07T06:42:19.606Z,42.43
2018-08-07T06:43:17.016Z,43.01
2018-08-07T06:44:16.984Z,43.85
2018-08-07T06:45:16.976Z,44.04
2018-08-07T06:46:16.975Z,43.95
2018-08-07T06:47:16.968Z,43.95
2018-08-07T06:48:16.967Z,44.62
2018-08-07T06:49:16.965Z,45.28
2018-08-07T06:50:17.000Z,45.38
2018-08-07T06:51:16.967Z,46.35
2018-08-07T06:52:16.958Z,46.52
2018-08-07T06:53:16.961Z,47.69
2018-08-07T06:54:16.954Z,47.57
2018-08-07T06:55:20.180Z,48.73
2018-08-07T06:56:16.943Z,49.02
2018-08-07T06:57:16.942Z,49.51
2018-08-07T06:58:16.938Z,49.12
2018-08-07T06:59:16.942Z,48.95
2018-08-07T07:00:16.935Z,48.30
2018-08-07T07:01:16.927Z,47.71
2018-08-07T07:02:16.923Z,47.52
2018-08-07T07:03:16.916Z,47.71
2018-08-07T07:04:16.913Z,47.52
2018-08-07T07:05:16.910Z,47.81
2018-08-07T07:06:16.906Z,47.52
2018-08-07T07:07:16.900Z,47.03
2018-08-07T07:08:16.908Z,47.25
2018-08-07T07:09:16.911Z,46.96
2018-08-07T07:10:16.883Z,46.96
2018-08-07T07:11:16.879Z,47.74
2018-08-07T07:12:16.877Z,46.78
2018-08-07T07:13:19.690Z,46.59
2018-08-07T07:14:16.870Z,46.40
2018-08-07T07:15:17.785Z,46.59
2018-08-07T07:16:16.862Z,46.50
2018-08-07T07:17:20.339Z,46.98
2018-08-07T07:19:55.618Z,46.11
2018-08-07T07:20:55.676Z,45.84
2018-08-07T07:21:55.621Z,46.11
2018-08-07T07:22:55.598Z,45.94
2018-08-07T07:23:55.596Z,45.45
2018-08-07T07:24:55.584Z,44.96
2018-08-07T07:26:55.570Z,45.37
2018-08-07T07:27:55.567Z,44.76
2018-08-07T07:28:55.567Z,44.49
2018-08-07T07:29:55.564Z,44.69
2018-08-07T07:30:55.552Z,45.06
2018-08-07T07:31:55.679Z,45.15
2018-08-07T07:32:55.541Z,44.89
2018-08-07T07:33:55.529Z,44.30
2018-08-07T07:34:55.524Z,44.20
2018-08-07T07:35:55.515Z,44.10
2018-08-07T07:36:55.508Z,43.71
2018-08-07T07:37:55.511Z,43.52
2018-08-07T07:38:55.497Z,43.91
2018-08-07T07:39:55.493Z,44.20
2018-08-07T07:40:55.487Z,44.13
2018-08-07T07:42:28.694Z,44.10
2018-08-07T07:42:55.476Z,44.20
2018-08-07T07:43:55.471Z,44.10
2018-08-07T07:44:55.465Z,43.54
2018-08-07T07:45:55.458Z,42.96
2018-08-07T07:46:55.582Z,42.59
2018-08-07T07:47:55.451Z,42.41
2018-08-07T07:48:55.447Z,42.71
2018-08-07T07:49:55.435Z,42.59
2018-08-07T07:50:55.479Z,42.98
2018-08-07T07:51:55.424Z,43.27
2018-08-07T07:52:55.422Z,43.08
2018-08-07T07:53:55.436Z,43.35
2018-08-07T07:54:55.407Z,43.74
2018-08-07T07:55:55.410Z,43.54
2018-08-07T07:56:55.393Z,43.93
2018-08-07T07:57:55.390Z,43.54
2018-08-07T07:58:55.392Z,44.13
2018-08-07T07:59:55.378Z,44.32
2018-08-07T08:00:55.381Z,43.44
2018-08-07T08:01:55.366Z,42.88
2018-08-07T08:02:55.359Z,42.83
2018-08-07T08:03:55.361Z,42.05
2018-08-07T08:04:55.349Z,42.24
2018-08-07T08:05:55.437Z,41.56
2018-08-07T08:06:55.342Z,41.75
2018-08-07T08:07:55.337Z,42.24
2018-08-07T08:08:55.323Z,42.05
2018-08-07T08:09:55.318Z,42.16
2018-08-07T08:10:55.320Z,41.77
2018-08-07T08:11:55.307Z,41.87
2018-08-07T08:12:55.307Z,41.87
2018-08-07T08:13:55.294Z,41.38
2018-08-07T08:14:55.289Z,42.07
2018-08-07T08:15:55.281Z,41.77
2018-08-07T08:16:55.328Z,41.50
2018-08-07T08:17:55.294Z,42.19
2018-08-07T08:18:55.273Z,42.16
2018-08-07T08:19:55.268Z,41.99
2018-08-07T08:20:55.253Z,41.99
2018-08-07T08:21:57.869Z,41.41
2018-08-07T08:22:57.864Z,41.21
2018-08-07T08:23:55.233Z,40.72
2018-08-07T08:24:55.228Z,41.70
2018-08-07T08:26:28.430Z,41.89
2018-08-07T08:30:15.915Z,42.36
2018-08-07T08:31:15.913Z,42.55
2018-08-07T08:32:15.920Z,42.46
2018-08-07T08:33:15.898Z,43.04
2018-08-07T08:34:15.888Z,43.07
2018-08-07T08:35:15.950Z,42.97
2018-08-07T08:36:15.873Z,42.29
2018-08-07T08:37:15.865Z,41.89
2018-08-07T08:38:15.861Z,42.19
2018-08-07T08:39:15.855Z,42.11
2018-08-07T08:40:15.847Z,41.23
2018-08-07T08:41:15.844Z,40.66
2018-08-07T08:42:15.834Z,39.98
2018-08-07T08:43:15.889Z,39.88
2018-08-07T08:44:15.824Z,39.98
2018-08-07T08:45:15.814Z,40.76
2018-08-07T08:46:15.813Z,40.47
2018-08-07T08:47:15.805Z,40.08
2018-08-07T08:48:15.825Z,40.76
2018-08-07T08:49:15.789Z,40.66
2018-08-07T08:50:15.792Z,39.49
2018-08-07T08:51:15.777Z,40.08
2018-08-07T08:53:40.378Z,38.84
2018-08-07T08:54:40.367Z,38.84
2018-08-07T08:55:40.358Z,38.84
2018-08-07T08:56:40.352Z,38.75
2018-08-07T08:57:40.346Z,38.65
2018-08-07T08:58:40.340Z,38.76
2018-08-07T08:59:40.333Z,38.47
2018-08-07T09:00:40.327Z,37.79
2018-08-07T09:01:40.318Z,37.81
2018-08-07T09:02:40.312Z,37.81
2018-08-07T09:03:40.307Z,37.63
2018-08-07T09:04:40.301Z,37.52
2018-08-07T09:05:40.301Z,37.05
2018-08-07T09:06:40.290Z,36.88
2018-08-07T09:07:40.281Z,35.70
2018-08-07T09:08:40.275Z,35.99
2018-08-07T09:09:40.269Z,35.82
2018-08-07T09:10:40.455Z,35.03
2018-08-07T09:11:40.256Z,33.97
2018-08-07T09:12:40.253Z,34.26
2018-08-07T09:13:40.254Z,34.46
2018-08-07T09:14:40.253Z,33.77
2018-08-07T09:15:40.240Z,33.00
2018-08-07T09:16:40.229Z,33.20
2018-08-07T09:17:40.228Z,33.12
2018-08-07T09:18:40.236Z,32.74
2018-08-07T09:19:40.277Z,32.24
2018-08-07T09:20:40.212Z,32.07
2018-08-07T09:21:40.217Z,31.67
2018-08-07T09:22:40.209Z,31.39
2018-08-07T09:23:40.224Z,31.39
2018-08-07T09:24:40.198Z,31.29
2018-08-07T09:25:40.290Z,30.88
2018-08-07T09:26:43.214Z,31.38
2018-08-07T09:27:40.329Z,31.57
2018-08-07T09:28:40.180Z,31.09
2018-08-07T09:29:40.175Z,31.77
2018-08-07T09:30:40.172Z,31.57
2018-08-07T09:31:40.169Z,31.97
2018-08-07T09:32:40.165Z,32.54
2018-08-07T09:33:40.167Z,31.46
2018-08-07T09:34:40.159Z,31.74
2018-08-07T09:36:13.370Z,32.43
2018-08-07T09:36:40.153Z,32.43
2018-08-07T09:37:40.154Z,32.24
2018-08-07T09:38:40.153Z,31.77
2018-08-07T09:39:40.190Z,31.39
2018-08-07T09:40:40.165Z,30.62
2018-08-07T09:41:40.153Z,29.55
2018-08-07T09:42:40.139Z,28.68
2018-08-07T09:43:40.198Z,28.97
2018-08-07T09:44:40.137Z,28.69
2018-08-07T09:45:40.134Z,28.99
2018-08-07T09:46:40.269Z,28.50
2018-08-07T09:47:40.140Z,28.78
2018-08-07T09:48:40.132Z,28.78
2018-08-07T09:49:40.807Z,28.50
2018-08-07T09:50:40.147Z,28.02
2018-08-07T09:51:40.133Z,27.72
2018-08-07T09:52:40.123Z,27.94
2018-08-07T09:53:40.128Z,27.17
2018-08-07T09:54:40.119Z,26.67
2018-08-07T09:55:40.119Z,26.78
2018-08-07T09:56:40.269Z,26.50
2018-08-07T09:57:40.121Z,26.21
2018-08-07T09:58:40.268Z,26.02
2018-08-07T09:59:40.122Z,26.02
2018-08-07T10:00:40.135Z,25.72
2018-08-07T10:01:40.144Z,25.84
2018-08-07T10:02:40.132Z,25.26
2018-08-07T10:03:40.132Z,24.57
2018-08-07T10:04:40.147Z,24.66
2018-08-07T10:05:40.142Z,25.13
2018-08-07T10:06:40.145Z,25.72
2018-08-07T10:07:40.148Z,25.24
2018-08-07T10:08:40.152Z,24.84
2018-08-07T10:09:40.158Z,24.76
2018-08-07T10:10:40.162Z,24.87
2018-08-07T10:11:40.170Z,24.88
2018-08-07T10:12:40.173Z,24.19
2018-08-07T10:13:40.178Z,24.76
2018-08-07T10:14:40.186Z,24.67
2018-08-07T10:15:40.194Z,24.67
2018-08-07T10:16:40.197Z,24.97
2018-08-07T10:17:40.216Z,24.78
2018-08-07T10:18:40.215Z,23.99
2018-08-07T10:19:40.218Z,24.67
2018-08-07T10:20:40.227Z,23.89
2018-08-07T10:21:40.348Z,24.11
2018-08-07T10:22:40.239Z,23.24
2018-08-07T10:23:40.261Z,22.73
2018-08-07T10:24:40.256Z,23.61
2018-08-07T10:25:40.268Z,22.82
2018-08-07T10:26:40.268Z,22.93
2018-08-07T10:27:40.275Z,22.44
2018-08-07T10:28:40.285Z,22.61
2018-08-07T10:29:40.294Z,23.19
2018-08-07T10:30:40.347Z,23.19
2018-08-07T10:31:40.307Z,22.49
2018-08-07T10:32:40.316Z,22.80
2018-08-07T10:33:40.328Z,22.60
2018-08-07T10:34:40.488Z,23.47
2018-08-07T10:35:40.342Z,23.27
2018-08-07T10:36:40.349Z,22.78
2018-08-07T10:37:40.358Z,22.82
2018-08-07T10:38:40.368Z,21.95
2018-08-07T10:39:40.377Z,21.24
2018-08-07T10:40:40.471Z,21.14
2018-08-07T10:41:40.405Z,21.35
2018-08-07T10:42:40.411Z,21.16
2018-08-07T10:43:40.574Z,20.78
2018-08-07T10:44:40.436Z,20.97
2018-08-07T10:45:40.429Z,21.36
2018-08-07T10:46:40.440Z,20.76
2018-08-07T10:47:40.491Z,21.23
2018-08-07T10:48:40.467Z,21.15
2018-08-07T10:49:40.475Z,20.45
2018-08-07T10:50:40.530Z,20.07
2018-08-07T10:51:40.492Z,19.77
2018-08-07T10:52:40.494Z,19.57
2018-08-07T10:53:40.503Z,18.78
2018-08-07T10:54:40.522Z,17.49
2018-08-07T10:55:40.524Z,17.28
2018-08-07T10:56:40.582Z,17.26
2018-08-07T10:57:40.549Z,17.97
2018-08-07T10:58:40.553Z,17.68
2018-08-07T10:59:40.562Z,17.86
2018-08-07T11:00:40.574Z,18.45
2018-08-07T11:01:40.584Z,18.26
2018-08-07T11:02:40.622Z,18.45
2018-08-07T11:03:40.623Z,18.37
2018-08-07T11:04:40.611Z,17.97
2018-08-07T11:05:40.670Z,18.18
2018-08-07T11:06:40.634Z,17.98
2018-08-07T11:07:40.642Z,17.90
2018-08-07T11:08:40.648Z,17.80
2018-08-07T11:09:40.659Z,17.88
2018-08-07T11:10:40.670Z,18.37
2018-08-07T11:11:40.680Z,18.55
2018-08-07T11:12:40.757Z,19.73
2018-08-07T11:13:40.728Z,18.93
2018-08-07T11:14:40.717Z,19.12
2018-08-07T11:15:40.719Z,19.90
2018-08-07T11:16:40.729Z,19.70
2018-08-07T11:17:40.741Z,19.29
2018-08-07T11:18:40.760Z,18.63
2018-08-07T11:19:40.762Z,18.54
2018-08-07T11:20:40.763Z,18.45
2018-08-07T11:21:40.777Z,18.16
2018-08-07T11:22:40.787Z,18.07
2018-08-07T11:23:40.790Z,18.26
2018-08-07T11:24:40.857Z,18.93
2018-08-07T11:25:40.807Z,19.89
2018-08-07T11:26:40.818Z,20.09
2018-08-07T11:27:40.827Z,20.00
2018-08-07T11:28:40.847Z,20.00
2018-08-07T11:29:40.847Z,19.70
2018-08-07T11:30:40.855Z,19.81
2018-08-07T11:31:40.866Z,19.13
2018-08-07T11:32:40.875Z,19.12
2018-08-07T11:33:40.881Z,19.53
2018-08-07T11:34:40.894Z,19.43
2018-08-07T11:35:40.910Z,19.22
2018-08-07T11:36:40.911Z,19.42
2018-08-07T11:37:40.913Z,19.13
2018-08-07T11:38:40.928Z,19.52
2018-08-07T11:39:40.929Z,19.13
2018-08-07T11:40:40.933Z,18.92
2018-08-07T11:41:40.941Z,19.81
2018-08-07T11:42:40.952Z,19.81
2018-08-07T11:43:40.959Z,19.42
2018-08-07T11:44:40.972Z,18.74
2018-08-07T11:45:40.972Z,18.84
2018-08-07T11:46:40.983Z,19.12
2018-08-07T11:47:40.998Z,18.93
2018-08-07T11:48:40.993Z,18.74
2018-08-07T11:49:41.002Z,17.96
2018-08-07T11:50:41.063Z,18.16
2018-08-07T11:51:41.030Z,18.16
2018-08-07T11:52:41.038Z,18.54
2018-08-07T11:53:41.031Z,18.16
2018-08-07T11:54:41.039Z,18.65
2018-08-07T11:55:41.039Z,18.55
2018-08-07T11:56:41.045Z,18.65
2018-08-07T11:57:41.050Z,17.86
2018-08-07T11:58:41.055Z,18.37
2018-08-07T11:59:41.061Z,18.07
2018-08-07T12:00:41.193Z,18.26
2018-08-07T12:01:41.073Z,18.26
2018-08-07T12:02:41.079Z,18.07
2018-08-07T12:03:41.087Z,17.86
2018-08-07T12:04:41.088Z,18.75
2018-08-07T12:05:41.096Z,18.74
2018-08-07T12:06:41.101Z,19.13
2018-08-07T12:07:41.103Z,19.90
2018-08-07T12:08:41.108Z,19.89
2018-08-07T12:09:41.107Z,20.49
2018-08-07T12:10:41.109Z,20.48
2018-08-07T12:11:41.112Z,20.37
2018-08-07T12:12:41.113Z,20.95
2018-08-07T12:13:41.236Z,21.44
2018-08-07T12:14:41.118Z,21.44
2018-08-07T12:15:41.120Z,21.83
2018-08-07T12:16:41.123Z,21.53
2018-08-07T12:17:41.127Z,22.03
2018-08-07T12:18:41.136Z,21.44
2018-08-07T12:19:41.134Z,21.14
2018-08-07T12:20:41.144Z,21.83
2018-08-07T12:21:41.192Z,21.83
2018-08-07T12:22:41.136Z,21.64
2018-08-07T12:23:41.130Z,20.94
2018-08-07T12:24:41.130Z,21.14
2018-08-07T12:25:41.159Z,20.64
2018-08-07T12:26:41.190Z,21.32
2018-08-07T12:27:41.172Z,21.11
2018-08-07T12:28:41.140Z,21.22
2018-08-07T12:29:41.137Z,21.61
2018-08-07T12:30:41.133Z,21.22
2018-08-07T12:31:41.134Z,20.73
2018-08-07T12:32:41.131Z,21.42
2018-08-07T12:33:41.138Z,20.72
2018-08-07T12:34:41.139Z,21.11
2018-08-07T12:35:41.131Z,21.41
2018-08-07T12:36:41.136Z,20.81
2018-08-07T12:37:41.136Z,21.01
2018-08-07T12:38:41.130Z,21.59
2018-08-07T12:39:41.129Z,21.41
2018-08-07T12:40:41.232Z,21.60
2018-08-07T12:41:41.129Z,21.60
2018-08-07T12:42:41.127Z,21.90
2018-08-07T12:43:41.125Z,21.61
2018-08-07T12:44:41.125Z,21.50
2018-08-07T12:45:41.120Z,21.30
2018-08-07T12:46:41.251Z,21.21
2018-08-07T12:47:41.120Z,21.50
2018-08-07T12:48:41.126Z,21.31
2018-08-07T12:49:41.121Z,21.59
2018-08-07T12:50:41.115Z,21.30
2018-08-07T12:51:41.127Z,21.20
2018-08-07T12:52:41.113Z,21.10
2018-08-07T12:53:41.113Z,21.89
2018-08-07T12:54:41.108Z,21.50
2018-08-07T12:55:41.107Z,21.30
2018-08-07T12:56:41.109Z,21.50
2018-08-07T12:57:41.113Z,21.69
2018-08-07T12:58:41.109Z,21.80
2018-08-07T12:59:41.109Z,22.00
2018-08-07T13:00:41.156Z,21.80
2018-08-07T13:01:41.099Z,21.30